Glen Rose, TX (76043)

5:51 PM CST on December 27, 2014 (GMT -0600)
Fossil Rim Wildlife Center | Change Station
CLOSE
Current Station
Personal Weather Station
Location: Glen Rose, TX
Elevation: 1180 ft
Nearby Weather Stations

Elev 1180 ft 32.16 °N, 97.81 °W | Updated 3 seconds ago

Overcast
Overcast
35.1 °F
Feels Like 26 °F
N
13.0
Wind Variable Wind from NW
Gusts 19.0 mph

Today
High -- | Low -- °F
--% Chance of Precip.
Yesterday
High -- | Low -- °F
Precip. -- in
7:30 AM 5:33 PM
Waxing Crescent, 41% visible
Pressure 30.29 in
Visibility 10.0 miles
Clouds Overcast 6000 ft
Windchill 26 °F
Dew Point 31 °F
Humidity 84%
Rainfall 0.00 in
Snow Depth Not available.
UV 0 out of 12
Pollen 10.70 out of 12
Air Quality Not available.
Flu Activity Not available.
METAR KGDJ 272335Z AUTO 31011KT 10SM OVC060 04/00 A3029 RMK AO2 T00351005

More Conditions Fewer Conditions

Pressure 30.29 in
Visibility 10.0 miles
Clouds Overcast 6000 ft
Windchill 26 °F
Dew Point 31 °F
Humidity 84%
Rainfall 0.00 in
Snow Depth Not available.
UV 0 out of 12
Pollen 10.70 out of 12
Air Quality Not available.
Flu Activity Not available.
METAR KGDJ 272335Z AUTO 31011KT 10SM OVC060 04/00 A3029 RMK AO2 T00351005

More Conditions Fewer Conditions

Nowcast | as of 3:18 PM CST on December 27, 2014

An area of rain continues to slide east this afternoon. At 3 PM the area was located either side of a line from Waco to Paris. Total rainfall amounts for areas that do receive rain will generally be light...and likely less than one tenth of an inch. A few areas of very small sleet may also fall out of heavier showers...but with temperatures above freezing no impacts are expected. In addition...very isolated thunder may be heard this afternoon in this line of precipitation as an occasional cell grows tall enough to produce lightning.

×

10-Day Weather Forecast

Almanac

Astronomy

Dec. 27, 2014 Rise Set
Actual Time
Civil Twilight
Nautical Twilight
Astronomical Twilight
Moon
Length of Visible Light
Length of Day
Tomorrow will be .
, % of the Moon is Illuminated

Today's Extremes

State Highs State Lows

Community

WunderPhotos

Upload Photos

1,781,110 photos uploaded!

WunderBlogs® & News

Nearby

Air Quality

  Air Quality AQ Index Pollutant
Not available.

Snow Depth

Station Depth Elevation

Earthquake Activity

City Distance Mag. Time & Date
Minimum magnitude displayed is 2.5.

Coastal Water Temperatures

Place Temperature

Nearby Weather Stations